sensor_id;sensor_type;location;lat;lon;timestamp;P1;durP1;ratioP1;P2;durP2;ratioP2
19084;SDS011;9675;51.538;6.728;2022-12-22T00:02:11;10.90;;;4.97;;
19084;SDS011;9675;51.538;6.728;2022-12-22T00:05:00;10.40;;;4.57;;
19084;SDS011;9675;51.538;6.728;2022-12-22T00:07:54;10.07;;;4.20;;
19084;SDS011;9675;51.538;6.728;2022-12-22T00:10:38;7.40;;;3.90;;
19084;SDS011;9675;51.538;6.728;2022-12-22T00:13:24;6.93;;;4.20;;
19084;SDS011;9675;51.538;6.728;2022-12-22T00:16:09;7.17;;;4.00;;
19084;SDS011;9675;51.538;6.728;2022-12-22T00:18:54;6.57;;;3.40;;
19084;SDS011;9675;51.538;6.728;2022-12-22T00:21:39;6.33;;;3.10;;
19084;SDS011;9675;51.538;6.728;2022-12-22T00:24:23;11.20;;;4.57;;
19084;SDS011;9675;51.538;6.728;2022-12-22T00:27:10;9.47;;;4.23;;
19084;SDS011;9675;51.538;6.728;2022-12-22T00:29:59;6.27;;;3.07;;
19084;SDS011;9675;51.538;6.728;2022-12-22T00:32:44;8.47;;;3.73;;
19084;SDS011;9675;51.538;6.728;2022-12-22T00:35:30;8.73;;;3.63;;
19084;SDS011;9675;51.538;6.728;2022-12-22T00:38:16;9.03;;;3.33;;
19084;SDS011;9675;51.538;6.728;2022-12-22T00:41:02;5.63;;;3.33;;
19084;SDS011;9675;51.538;6.728;2022-12-22T00:43:48;7.97;;;3.47;;
19084;SDS011;9675;51.538;6.728;2022-12-22T00:46:34;7.93;;;4.23;;
19084;SDS011;9675;51.538;6.728;2022-12-22T00:49:23;7.17;;;2.87;;
19084;SDS011;9675;51.538;6.728;2022-12-22T00:52:10;7.07;;;3.83;;
19084;SDS011;9675;51.538;6.728;2022-12-22T00:54:55;8.03;;;4.37;;
19084;SDS011;9675;51.538;6.728;2022-12-22T00:57:41;8.03;;;4.40;;
19084;SDS011;9675;51.538;6.728;2022-12-22T01:00:26;11.50;;;4.87;;
19084;SDS011;9675;51.538;6.728;2022-12-22T01:03:13;7.53;;;4.60;;
19084;SDS011;9675;51.538;6.728;2022-12-22T01:05:58;15.30;;;5.67;;
19084;SDS011;9675;51.538;6.728;2022-12-22T01:08:45;14.13;;;6.80;;
19084;SDS011;9675;51.538;6.728;2022-12-22T01:11:32;8.20;;;4.63;;
19084;SDS011;9675;51.538;6.728;2022-12-22T01:14:17;14.10;;;6.43;;
19084;SDS011;9675;51.538;6.728;2022-12-22T01:17:02;12.47;;;5.50;;
19084;SDS011;9675;51.538;6.728;2022-12-22T01:19:48;13.87;;;5.80;;
19084;SDS011;9675;51.538;6.728;2022-12-22T01:22:33;16.73;;;6.83;;
19084;SDS011;9675;51.538;6.728;2022-12-22T01:25:18;20.90;;;7.13;;
19084;SDS011;9675;51.538;6.728;2022-12-22T01:28:03;8.97;;;4.47;;
19084;SDS011;9675;51.538;6.728;2022-12-22T01:30:48;15.90;;;6.67;;
19084;SDS011;9675;51.538;6.728;2022-12-22T01:33:32;14.97;;;5.50;;
19084;SDS011;9675;51.538;6.728;2022-12-22T01:36:18;14.30;;;4.60;;
19084;SDS011;9675;51.538;6.728;2022-12-22T01:39:03;7.43;;;4.30;;
19084;SDS011;9675;51.538;6.728;2022-12-22T01:41:47;11.23;;;5.80;;
19084;SDS011;9675;51.538;6.728;2022-12-22T01:44:32;10.57;;;4.67;;
19084;SDS011;9675;51.538;6.728;2022-12-22T01:47:33;12.27;;;4.20;;
19084;SDS011;9675;51.538;6.728;2022-12-22T01:50:23;15.30;;;4.90;;
19084;SDS011;9675;51.538;6.728;2022-12-22T01:53:16;9.50;;;4.37;;
19084;SDS011;9675;51.538;6.728;2022-12-22T01:56:04;10.37;;;4.27;;
19084;SDS011;9675;51.538;6.728;2022-12-22T01:58:51;7.67;;;3.27;;
19084;SDS011;9675;51.538;6.728;2022-12-22T02:01:40;7.27;;;4.07;;
19084;SDS011;9675;51.538;6.728;2022-12-22T02:04:29;8.03;;;4.33;;
19084;SDS011;9675;51.538;6.728;2022-12-22T02:07:22;10.60;;;4.47;;
19084;SDS011;9675;51.538;6.728;2022-12-22T02:10:29;10.33;;;3.20;;
19084;SDS011;9675;51.538;6.728;2022-12-22T02:13:39;10.27;;;3.57;;
19084;SDS011;9675;51.538;6.728;2022-12-22T02:16:42;8.70;;;4.07;;
19084;SDS011;9675;51.538;6.728;2022-12-22T02:19:43;7.83;;;3.80;;
19084;SDS011;9675;51.538;6.728;2022-12-22T02:22:54;6.67;;;4.27;;
19084;SDS011;9675;51.538;6.728;2022-12-22T02:25:54;8.87;;;3.93;;
19084;SDS011;9675;51.538;6.728;2022-12-22T02:28:50;11.20;;;3.80;;
19084;SDS011;9675;51.538;6.728;2022-12-22T02:31:36;7.83;;;3.70;;
19084;SDS011;9675;51.538;6.728;2022-12-22T02:34:22;6.43;;;3.80;;
19084;SDS011;9675;51.538;6.728;2022-12-22T02:37:08;12.17;;;3.90;;
19084;SDS011;9675;51.538;6.728;2022-12-22T02:40:06;9.17;;;4.97;;
19084;SDS011;9675;51.538;6.728;2022-12-22T02:43:03;4.77;;;2.70;;
19084;SDS011;9675;51.538;6.728;2022-12-22T02:46:04;5.97;;;3.37;;
19084;SDS011;9675;51.538;6.728;2022-12-22T02:48:59;6.40;;;3.77;;
19084;SDS011;9675;51.538;6.728;2022-12-22T02:51:53;7.77;;;3.33;;
19084;SDS011;9675;51.538;6.728;2022-12-22T02:55:01;7.17;;;3.60;;
19084;SDS011;9675;51.538;6.728;2022-12-22T02:57:49;7.03;;;3.57;;
19084;SDS011;9675;51.538;6.728;2022-12-22T03:00:33;9.87;;;3.50;;
19084;SDS011;9675;51.538;6.728;2022-12-22T03:03:19;6.83;;;3.10;;
19084;SDS011;9675;51.538;6.728;2022-12-22T03:06:04;7.50;;;3.20;;
19084;SDS011;9675;51.538;6.728;2022-12-22T03:08:49;6.03;;;3.27;;
19084;SDS011;9675;51.538;6.728;2022-12-22T03:11:33;6.30;;;3.17;;
19084;SDS011;9675;51.538;6.728;2022-12-22T03:14:18;5.77;;;3.30;;
19084;SDS011;9675;51.538;6.728;2022-12-22T03:17:03;5.80;;;3.40;;
19084;SDS011;9675;51.538;6.728;2022-12-22T03:19:49;8.30;;;3.50;;
19084;SDS011;9675;51.538;6.728;2022-12-22T03:22:33;6.70;;;4.00;;
19084;SDS011;9675;51.538;6.728;2022-12-22T03:25:18;6.53;;;3.60;;
19084;SDS011;9675;51.538;6.728;2022-12-22T03:28:03;10.27;;;4.07;;
19084;SDS011;9675;51.538;6.728;2022-12-22T03:30:32;8.20;;;4.33;;
19084;SDS011;9675;51.538;6.728;2022-12-22T03:32:59;8.00;;;3.63;;
19084;SDS011;9675;51.538;6.728;2022-12-22T03:35:28;7.57;;;3.90;;
19084;SDS011;9675;51.538;6.728;2022-12-22T03:37:55;8.80;;;3.73;;
19084;SDS011;9675;51.538;6.728;2022-12-22T03:40:27;10.13;;;3.57;;
19084;SDS011;9675;51.538;6.728;2022-12-22T03:42:55;8.67;;;3.27;;
19084;SDS011;9675;51.538;6.728;2022-12-22T03:45:39;9.40;;;4.30;;
19084;SDS011;9675;51.538;6.728;2022-12-22T03:48:24;7.17;;;2.77;;
19084;SDS011;9675;51.538;6.728;2022-12-22T03:50:52;5.90;;;2.80;;
19084;SDS011;9675;51.538;6.728;2022-12-22T03:53:19;6.67;;;2.90;;
19084;SDS011;9675;51.538;6.728;2022-12-22T03:55:46;8.17;;;3.30;;
19084;SDS011;9675;51.538;6.728;2022-12-22T03:58:13;4.40;;;2.40;;
19084;SDS011;9675;51.538;6.728;2022-12-22T04:00:40;5.97;;;2.83;;
19084;SDS011;9675;51.538;6.728;2022-12-22T04:03:07;4.33;;;2.00;;
19084;SDS011;9675;51.538;6.728;2022-12-22T04:05:34;3.57;;;2.10;;
19084;SDS011;9675;51.538;6.728;2022-12-22T04:08:03;5.57;;;2.03;;
19084;SDS011;9675;51.538;6.728;2022-12-22T04:10:30;4.47;;;2.40;;
19084;SDS011;9675;51.538;6.728;2022-12-22T04:13:15;5.40;;;2.60;;
19084;SDS011;9675;51.538;6.728;2022-12-22T04:15:42;3.13;;;2.23;;
19084;SDS011;9675;51.538;6.728;2022-12-22T04:18:09;4.73;;;2.50;;
19084;SDS011;9675;51.538;6.728;2022-12-22T04:20:36;8.10;;;3.67;;
19084;SDS011;9675;51.538;6.728;2022-12-22T04:23:04;5.37;;;2.67;;
19084;SDS011;9675;51.538;6.728;2022-12-22T04:25:31;5.17;;;3.20;;
19084;SDS011;9675;51.538;6.728;2022-12-22T04:27:58;4.43;;;3.03;;
19084;SDS011;9675;51.538;6.728;2022-12-22T04:30:25;7.40;;;2.90;;
19084;SDS011;9675;51.538;6.728;2022-12-22T04:32:52;8.40;;;3.17;;
19084;SDS011;9675;51.538;6.728;2022-12-22T04:35:19;7.43;;;2.90;;
19084;SDS011;9675;51.538;6.728;2022-12-22T04:37:46;6.80;;;3.43;;
19084;SDS011;9675;51.538;6.728;2022-12-22T04:40:15;10.83;;;4.17;;
19084;SDS011;9675;51.538;6.728;2022-12-22T04:42:42;7.73;;;3.83;;
19084;SDS011;9675;51.538;6.728;2022-12-22T04:45:09;7.27;;;3.57;;
19084;SDS011;9675;51.538;6.728;2022-12-22T04:47:36;6.73;;;3.60;;
19084;SDS011;9675;51.538;6.728;2022-12-22T04:50:04;8.80;;;3.10;;
19084;SDS011;9675;51.538;6.728;2022-12-22T04:52:32;6.73;;;4.43;;
19084;SDS011;9675;51.538;6.728;2022-12-22T04:54:59;8.00;;;3.47;;
19084;SDS011;9675;51.538;6.728;2022-12-22T04:57:27;6.37;;;3.63;;
19084;SDS011;9675;51.538;6.728;2022-12-22T04:59:54;9.98;;;4.18;;
19084;SDS011;9675;51.538;6.728;2022-12-22T05:02:21;7.10;;;3.90;;
19084;SDS011;9675;51.538;6.728;2022-12-22T05:04:48;7.27;;;3.07;;
19084;SDS011;9675;51.538;6.728;2022-12-22T05:07:15;10.43;;;4.43;;
19084;SDS011;9675;51.538;6.728;2022-12-22T05:09:44;6.97;;;3.30;;
19084;SDS011;9675;51.538;6.728;2022-12-22T05:12:11;5.73;;;2.73;;
19084;SDS011;9675;51.538;6.728;2022-12-22T05:14:56;4.83;;;2.17;;
19084;SDS011;9675;51.538;6.728;2022-12-22T05:17:23;5.23;;;2.87;;
19084;SDS011;9675;51.538;6.728;2022-12-22T05:19:50;3.67;;;2.30;;
19084;SDS011;9675;51.538;6.728;2022-12-22T05:22:17;6.53;;;3.53;;
19084;SDS011;9675;51.538;6.728;2022-12-22T05:24:44;6.27;;;2.87;;
19084;SDS011;9675;51.538;6.728;2022-12-22T05:27:11;6.53;;;3.60;;
19084;SDS011;9675;51.538;6.728;2022-12-22T05:29:39;7.00;;;3.33;;
19084;SDS011;9675;51.538;6.728;2022-12-22T05:32:07;6.27;;;3.30;;
19084;SDS011;9675;51.538;6.728;2022-12-22T05:34:34;7.80;;;3.90;;
19084;SDS011;9675;51.538;6.728;2022-12-22T05:37:01;5.70;;;2.73;;
19084;SDS011;9675;51.538;6.728;2022-12-22T05:39:28;9.87;;;4.43;;
19084;SDS011;9675;51.538;6.728;2022-12-22T05:41:55;10.37;;;5.93;;
19084;SDS011;9675;51.538;6.728;2022-12-22T05:44:22;8.73;;;5.10;;
19084;SDS011;9675;51.538;6.728;2022-12-22T05:46:49;7.03;;;4.60;;
19084;SDS011;9675;51.538;6.728;2022-12-22T05:49:18;11.33;;;6.27;;
19084;SDS011;9675;51.538;6.728;2022-12-22T05:51:45;9.20;;;5.07;;
19084;SDS011;9675;51.538;6.728;2022-12-22T05:54:12;9.03;;;4.60;;
19084;SDS011;9675;51.538;6.728;2022-12-22T05:56:39;8.50;;;4.23;;
19084;SDS011;9675;51.538;6.728;2022-12-22T05:59:06;7.47;;;3.83;;
19084;SDS011;9675;51.538;6.728;2022-12-22T06:01:35;23.70;;;11.53;;
19084;SDS011;9675;51.538;6.728;2022-12-22T06:04:02;11.07;;;6.20;;
19084;SDS011;9675;51.538;6.728;2022-12-22T06:06:31;10.63;;;6.20;;
19084;SDS011;9675;51.538;6.728;2022-12-22T06:08:58;14.03;;;7.47;;
19084;SDS011;9675;51.538;6.728;2022-12-22T06:11:25;9.53;;;5.17;;
19084;SDS011;9675;51.538;6.728;2022-12-22T06:13:52;10.67;;;5.17;;
19084;SDS011;9675;51.538;6.728;2022-12-22T06:16:19;6.40;;;3.77;;
19084;SDS011;9675;51.538;6.728;2022-12-22T06:18:46;7.03;;;4.13;;
19084;SDS011;9675;51.538;6.728;2022-12-22T06:21:13;6.53;;;3.73;;
19084;SDS011;9675;51.538;6.728;2022-12-22T06:23:44;8.07;;;4.03;;
19084;SDS011;9675;51.538;6.728;2022-12-22T06:26:11;9.13;;;4.37;;
19084;SDS011;9675;51.538;6.728;2022-12-22T06:28:38;10.53;;;5.50;;
19084;SDS011;9675;51.538;6.728;2022-12-22T06:31:05;23.40;;;7.27;;
19084;SDS011;9675;51.538;6.728;2022-12-22T06:33:32;25.50;;;11.33;;
19084;SDS011;9675;51.538;6.728;2022-12-22T06:36:02;19.47;;;8.20;;
19084;SDS011;9675;51.538;6.728;2022-12-22T06:38:30;16.17;;;6.13;;
19084;SDS011;9675;51.538;6.728;2022-12-22T06:40:59;9.40;;;4.43;;
19084;SDS011;9675;51.538;6.728;2022-12-22T06:43:26;9.53;;;5.10;;
19084;SDS011;9675;51.538;6.728;2022-12-22T06:45:52;11.70;;;5.13;;
19084;SDS011;9675;51.538;6.728;2022-12-22T06:48:19;9.50;;;5.13;;
19084;SDS011;9675;51.538;6.728;2022-12-22T06:50:46;11.00;;;6.07;;
19084;SDS011;9675;51.538;6.728;2022-12-22T06:53:14;13.17;;;6.77;;
19084;SDS011;9675;51.538;6.728;2022-12-22T06:55:41;11.30;;;6.17;;
19084;SDS011;9675;51.538;6.728;2022-12-22T06:58:10;9.20;;;4.80;;
19084;SDS011;9675;51.538;6.728;2022-12-22T07:00:37;10.43;;;5.30;;
19084;SDS011;9675;51.538;6.728;2022-12-22T07:03:04;8.97;;;4.70;;
19084;SDS011;9675;51.538;6.728;2022-12-22T07:05:31;9.10;;;4.87;;
19084;SDS011;9675;51.538;6.728;2022-12-22T07:07:58;6.90;;;3.50;;
19084;SDS011;9675;51.538;6.728;2022-12-22T07:10:25;6.80;;;3.83;;
19084;SDS011;9675;51.538;6.728;2022-12-22T07:13:05;6.23;;;3.17;;
19084;SDS011;9675;51.538;6.728;2022-12-22T07:15:44;6.33;;;3.43;;
19084;SDS011;9675;51.538;6.728;2022-12-22T07:18:11;8.50;;;3.67;;
19084;SDS011;9675;51.538;6.728;2022-12-22T07:20:38;7.00;;;3.57;;
19084;SDS011;9675;51.538;6.728;2022-12-22T07:23:05;4.97;;;3.13;;
19084;SDS011;9675;51.538;6.728;2022-12-22T07:25:32;7.50;;;4.13;;
19084;SDS011;9675;51.538;6.728;2022-12-22T07:27:59;6.40;;;3.90;;
19084;SDS011;9675;51.538;6.728;2022-12-22T07:30:26;9.93;;;4.50;;
19084;SDS011;9675;51.538;6.728;2022-12-22T07:32:55;6.03;;;3.10;;
19084;SDS011;9675;51.538;6.728;2022-12-22T07:35:22;8.57;;;3.50;;
19084;SDS011;9675;51.538;6.728;2022-12-22T07:37:49;5.63;;;3.67;;
19084;SDS011;9675;51.538;6.728;2022-12-22T07:40:16;5.90;;;3.67;;
19084;SDS011;9675;51.538;6.728;2022-12-22T07:42:43;7.73;;;3.53;;
19084;SDS011;9675;51.538;6.728;2022-12-22T07:45:14;11.07;;;2.87;;
19084;SDS011;9675;51.538;6.728;2022-12-22T07:47:44;7.80;;;2.83;;
19084;SDS011;9675;51.538;6.728;2022-12-22T07:50:15;4.97;;;3.07;;
19084;SDS011;9675;51.538;6.728;2022-12-22T07:52:52;5.57;;;3.13;;
19084;SDS011;9675;51.538;6.728;2022-12-22T07:55:20;7.30;;;3.23;;
19084;SDS011;9675;51.538;6.728;2022-12-22T07:57:48;7.33;;;3.53;;
19084;SDS011;9675;51.538;6.728;2022-12-22T08:00:15;8.07;;;3.70;;
19084;SDS011;9675;51.538;6.728;2022-12-22T08:02:47;6.63;;;2.50;;
19084;SDS011;9675;51.538;6.728;2022-12-22T08:05:16;6.33;;;3.60;;
19084;SDS011;9675;51.538;6.728;2022-12-22T08:07:44;5.27;;;2.50;;
19084;SDS011;9675;51.538;6.728;2022-12-22T08:10:14;4.93;;;2.30;;
19084;SDS011;9675;51.538;6.728;2022-12-22T08:12:42;9.70;;;3.40;;
19084;SDS011;9675;51.538;6.728;2022-12-22T08:15:10;6.73;;;3.33;;
19084;SDS011;9675;51.538;6.728;2022-12-22T08:17:38;6.33;;;3.17;;
19084;SDS011;9675;51.538;6.728;2022-12-22T08:20:05;8.13;;;3.33;;
19084;SDS011;9675;51.538;6.728;2022-12-22T08:22:35;7.57;;;3.17;;
19084;SDS011;9675;51.538;6.728;2022-12-22T08:25:02;6.73;;;3.83;;
19084;SDS011;9675;51.538;6.728;2022-12-22T08:27:30;13.00;;;4.63;;
19084;SDS011;9675;51.538;6.728;2022-12-22T08:30:04;10.87;;;3.70;;
19084;SDS011;9675;51.538;6.728;2022-12-22T08:32:36;7.57;;;3.07;;
19084;SDS011;9675;51.538;6.728;2022-12-22T08:35:05;9.77;;;4.10;;
19084;SDS011;9675;51.538;6.728;2022-12-22T08:37:36;8.77;;;3.83;;
19084;SDS011;9675;51.538;6.728;2022-12-22T08:40:10;5.77;;;3.20;;
19084;SDS011;9675;51.538;6.728;2022-12-22T08:42:41;9.03;;;3.47;;
19084;SDS011;9675;51.538;6.728;2022-12-22T08:45:10;8.83;;;2.87;;
19084;SDS011;9675;51.538;6.728;2022-12-22T08:47:37;8.83;;;3.50;;
19084;SDS011;9675;51.538;6.728;2022-12-22T08:50:05;6.83;;;3.40;;
19084;SDS011;9675;51.538;6.728;2022-12-22T08:52:33;10.23;;;4.57;;
19084;SDS011;9675;51.538;6.728;2022-12-22T08:55:02;9.50;;;3.93;;
19084;SDS011;9675;51.538;6.728;2022-12-22T08:57:30;7.77;;;3.37;;
19084;SDS011;9675;51.538;6.728;2022-12-22T08:59:57;7.80;;;3.13;;
19084;SDS011;9675;51.538;6.728;2022-12-22T09:02:24;8.57;;;3.40;;
19084;SDS011;9675;51.538;6.728;2022-12-22T09:04:52;6.37;;;3.03;;
19084;SDS011;9675;51.538;6.728;2022-12-22T09:07:19;12.40;;;4.87;;
19084;SDS011;9675;51.538;6.728;2022-12-22T09:09:47;9.63;;;3.60;;
19084;SDS011;9675;51.538;6.728;2022-12-22T09:12:14;8.33;;;3.10;;
19084;SDS011;9675;51.538;6.728;2022-12-22T09:14:41;10.00;;;4.43;;
19084;SDS011;9675;51.538;6.728;2022-12-22T09:17:08;10.10;;;4.37;;
19084;SDS011;9675;51.538;6.728;2022-12-22T09:19:35;9.70;;;3.87;;
19084;SDS011;9675;51.538;6.728;2022-12-22T09:22:02;9.30;;;3.17;;
19084;SDS011;9675;51.538;6.728;2022-12-22T09:24:29;17.67;;;5.00;;
19084;SDS011;9675;51.538;6.728;2022-12-22T09:26:58;9.43;;;3.73;;
19084;SDS011;9675;51.538;6.728;2022-12-22T09:29:27;3.13;;;2.17;;
19084;SDS011;9675;51.538;6.728;2022-12-22T09:31:54;11.47;;;3.73;;
19084;SDS011;9675;51.538;6.728;2022-12-22T09:34:21;9.90;;;3.60;;
19084;SDS011;9675;51.538;6.728;2022-12-22T09:36:48;10.80;;;4.60;;
19084;SDS011;9675;51.538;6.728;2022-12-22T09:39:15;7.57;;;4.20;;
19084;SDS011;9675;51.538;6.728;2022-12-22T09:41:44;14.50;;;5.87;;
19084;SDS011;9675;51.538;6.728;2022-12-22T09:44:17;12.47;;;4.47;;
19084;SDS011;9675;51.538;6.728;2022-12-22T09:46:50;16.17;;;6.30;;
19084;SDS011;9675;51.538;6.728;2022-12-22T09:49:20;11.57;;;4.07;;
19084;SDS011;9675;51.538;6.728;2022-12-22T09:51:50;11.43;;;5.50;;
19084;SDS011;9675;51.538;6.728;2022-12-22T09:54:21;12.60;;;3.97;;
19084;SDS011;9675;51.538;6.728;2022-12-22T09:56:50;11.53;;;4.73;;
19084;SDS011;9675;51.538;6.728;2022-12-22T09:59:19;6.03;;;3.17;;
19084;SDS011;9675;51.538;6.728;2022-12-22T10:01:55;14.93;;;5.93;;
19084;SDS011;9675;51.538;6.728;2022-12-22T10:04:41;9.63;;;3.33;;
19084;SDS011;9675;51.538;6.728;2022-12-22T10:07:23;13.40;;;5.57;;
19084;SDS011;9675;51.538;6.728;2022-12-22T10:09:56;9.63;;;4.43;;
19084;SDS011;9675;51.538;6.728;2022-12-22T10:12:24;9.07;;;3.17;;
19084;SDS011;9675;51.538;6.728;2022-12-22T10:14:53;14.63;;;6.27;;
19084;SDS011;9675;51.538;6.728;2022-12-22T10:17:21;12.40;;;5.23;;
19084;SDS011;9675;51.538;6.728;2022-12-22T10:19:53;14.30;;;5.27;;
19084;SDS011;9675;51.538;6.728;2022-12-22T10:22:35;13.87;;;4.77;;
19084;SDS011;9675;51.538;6.728;2022-12-22T10:25:22;13.97;;;5.03;;
19084;SDS011;9675;51.538;6.728;2022-12-22T10:27:58;11.80;;;3.80;;
19084;SDS011;9675;51.538;6.728;2022-12-22T10:30:30;13.13;;;5.03;;
19084;SDS011;9675;51.538;6.728;2022-12-22T10:33:02;15.13;;;5.00;;
19084;SDS011;9675;51.538;6.728;2022-12-22T10:35:41;15.50;;;5.70;;
19084;SDS011;9675;51.538;6.728;2022-12-22T10:38:13;10.77;;;4.53;;
19084;SDS011;9675;51.538;6.728;2022-12-22T10:40:46;12.10;;;5.20;;
19084;SDS011;9675;51.538;6.728;2022-12-22T10:43:19;11.40;;;4.43;;
19084;SDS011;9675;51.538;6.728;2022-12-22T10:45:51;17.50;;;6.67;;
19084;SDS011;9675;51.538;6.728;2022-12-22T10:48:25;10.83;;;4.70;;
19084;SDS011;9675;51.538;6.728;2022-12-22T10:50:54;12.67;;;4.53;;
19084;SDS011;9675;51.538;6.728;2022-12-22T10:53:40;20.33;;;7.50;;
19084;SDS011;9675;51.538;6.728;2022-12-22T10:56:20;12.90;;;4.23;;
19084;SDS011;9675;51.538;6.728;2022-12-22T10:58:51;10.47;;;3.40;;
19084;SDS011;9675;51.538;6.728;2022-12-22T11:01:26;11.97;;;5.20;;
19084;SDS011;9675;51.538;6.728;2022-12-22T11:03:56;9.63;;;3.77;;
19084;SDS011;9675;51.538;6.728;2022-12-22T11:06:42;13.63;;;5.80;;
19084;SDS011;9675;51.538;6.728;2022-12-22T11:09:10;14.27;;;5.47;;
19084;SDS011;9675;51.538;6.728;2022-12-22T11:11:38;12.93;;;5.37;;
19084;SDS011;9675;51.538;6.728;2022-12-22T11:14:18;9.13;;;4.10;;
19084;SDS011;9675;51.538;6.728;2022-12-22T11:17:01;11.63;;;5.43;;
19084;SDS011;9675;51.538;6.728;2022-12-22T11:19:51;21.37;;;6.63;;
19084;SDS011;9675;51.538;6.728;2022-12-22T11:22:36;20.97;;;6.07;;
19084;SDS011;9675;51.538;6.728;2022-12-22T11:25:19;15.93;;;5.83;;
19084;SDS011;9675;51.538;6.728;2022-12-22T11:28:03;13.40;;;5.10;;
19084;SDS011;9675;51.538;6.728;2022-12-22T11:30:51;22.20;;;6.97;;
19084;SDS011;9675;51.538;6.728;2022-12-22T11:33:41;18.23;;;6.03;;
19084;SDS011;9675;51.538;6.728;2022-12-22T11:36:27;15.63;;;5.40;;
19084;SDS011;9675;51.538;6.728;2022-12-22T11:39:11;23.10;;;8.17;;
19084;SDS011;9675;51.538;6.728;2022-12-22T11:41:43;17.30;;;6.87;;
19084;SDS011;9675;51.538;6.728;2022-12-22T11:44:36;23.50;;;6.27;;
19084;SDS011;9675;51.538;6.728;2022-12-22T11:47:20;20.53;;;6.10;;
19084;SDS011;9675;51.538;6.728;2022-12-22T11:50:07;12.27;;;4.77;;
19084;SDS011;9675;51.538;6.728;2022-12-22T11:52:55;12.07;;;5.30;;
19084;SDS011;9675;51.538;6.728;2022-12-22T11:55:41;17.07;;;5.37;;
19084;SDS011;9675;51.538;6.728;2022-12-22T11:58:28;24.03;;;6.77;;
19084;SDS011;9675;51.538;6.728;2022-12-22T12:01:30;25.00;;;7.63;;
19084;SDS011;9675;51.538;6.728;2022-12-22T12:04:22;23.37;;;6.87;;
19084;SDS011;9675;51.538;6.728;2022-12-22T12:07:11;25.10;;;7.43;;
19084;SDS011;9675;51.538;6.728;2022-12-22T12:09:51;15.70;;;5.07;;
19084;SDS011;9675;51.538;6.728;2022-12-22T12:12:37;28.37;;;8.33;;
19084;SDS011;9675;51.538;6.728;2022-12-22T12:15:17;21.10;;;7.37;;
19084;SDS011;9675;51.538;6.728;2022-12-22T12:18:00;25.53;;;8.60;;
19084;SDS011;9675;51.538;6.728;2022-12-22T12:20:57;28.10;;;9.00;;
19084;SDS011;9675;51.538;6.728;2022-12-22T12:23:52;17.97;;;6.97;;
19084;SDS011;9675;51.538;6.728;2022-12-22T12:26:54;15.70;;;5.10;;
19084;SDS011;9675;51.538;6.728;2022-12-22T12:29:33;22.97;;;7.83;;
19084;SDS011;9675;51.538;6.728;2022-12-22T12:32:05;19.77;;;7.27;;
19084;SDS011;9675;51.538;6.728;2022-12-22T12:34:43;21.87;;;8.93;;
19084;SDS011;9675;51.538;6.728;2022-12-22T12:37:18;22.37;;;8.23;;
19084;SDS011;9675;51.538;6.728;2022-12-22T12:39:52;23.93;;;7.97;;
19084;SDS011;9675;51.538;6.728;2022-12-22T12:42:29;13.80;;;5.83;;
19084;SDS011;9675;51.538;6.728;2022-12-22T12:45:00;15.50;;;5.70;;
19084;SDS011;9675;51.538;6.728;2022-12-22T12:47:29;18.43;;;5.70;;
19084;SDS011;9675;51.538;6.728;2022-12-22T12:50:27;15.30;;;5.60;;
19084;SDS011;9675;51.538;6.728;2022-12-22T12:53:04;31.47;;;9.80;;
19084;SDS011;9675;51.538;6.728;2022-12-22T12:55:49;22.07;;;6.93;;
19084;SDS011;9675;51.538;6.728;2022-12-22T12:58:46;20.83;;;8.33;;
19084;SDS011;9675;51.538;6.728;2022-12-22T13:14:00;17.87;;;7.03;;
19084;SDS011;9675;51.538;6.728;2022-12-22T13:16:33;16.13;;;6.93;;
19084;SDS011;9675;51.538;6.728;2022-12-22T13:19:22;19.23;;;7.43;;
19084;SDS011;9675;51.538;6.728;2022-12-22T13:21:52;14.57;;;7.30;;
19084;SDS011;9675;51.538;6.728;2022-12-22T13:24:25;16.93;;;7.97;;
19084;SDS011;9675;51.538;6.728;2022-12-22T13:27:01;17.33;;;7.23;;
19084;SDS011;9675;51.538;6.728;2022-12-22T13:29:40;15.50;;;8.07;;
19084;SDS011;9675;51.538;6.728;2022-12-22T13:32:16;13.30;;;5.40;;
19084;SDS011;9675;51.538;6.728;2022-12-22T13:34:59;16.90;;;7.43;;
19084;SDS011;9675;51.538;6.728;2022-12-22T13:37:39;18.17;;;6.60;;
19084;SDS011;9675;51.538;6.728;2022-12-22T13:40:15;11.57;;;5.43;;
19084;SDS011;9675;51.538;6.728;2022-12-22T13:42:46;17.70;;;7.60;;
19084;SDS011;9675;51.538;6.728;2022-12-22T13:45:18;9.37;;;5.10;;
19084;SDS011;9675;51.538;6.728;2022-12-22T13:47:56;13.93;;;6.33;;
19084;SDS011;9675;51.538;6.728;2022-12-22T13:50:27;12.47;;;5.77;;
19084;SDS011;9675;51.538;6.728;2022-12-22T13:53:02;13.37;;;6.30;;
19084;SDS011;9675;51.538;6.728;2022-12-22T13:55:35;10.13;;;4.83;;
19084;SDS011;9675;51.538;6.728;2022-12-22T13:58:05;28.90;;;7.43;;
19084;SDS011;9675;51.538;6.728;2022-12-22T14:00:50;13.40;;;6.17;;
19084;SDS011;9675;51.538;6.728;2022-12-22T14:03:27;12.90;;;5.73;;
19084;SDS011;9675;51.538;6.728;2022-12-22T14:05:54;14.40;;;6.67;;
19084;SDS011;9675;51.538;6.728;2022-12-22T14:08:22;8.83;;;4.90;;
19084;SDS011;9675;51.538;6.728;2022-12-22T14:10:49;8.33;;;4.47;;
19084;SDS011;9675;51.538;6.728;2022-12-22T14:13:21;9.10;;;3.97;;
19084;SDS011;9675;51.538;6.728;2022-12-22T14:15:58;9.67;;;5.17;;
19084;SDS011;9675;51.538;6.728;2022-12-22T14:18:29;10.27;;;5.10;;
19084;SDS011;9675;51.538;6.728;2022-12-22T14:20:58;9.37;;;5.03;;
19084;SDS011;9675;51.538;6.728;2022-12-22T14:23:26;9.63;;;4.03;;
19084;SDS011;9675;51.538;6.728;2022-12-22T14:25:59;10.93;;;4.47;;
19084;SDS011;9675;51.538;6.728;2022-12-22T14:28:36;14.70;;;6.00;;
19084;SDS011;9675;51.538;6.728;2022-12-22T14:31:14;12.60;;;6.30;;
19084;SDS011;9675;51.538;6.728;2022-12-22T14:33:49;14.17;;;6.03;;
19084;SDS011;9675;51.538;6.728;2022-12-22T14:36:20;12.80;;;5.73;;
19084;SDS011;9675;51.538;6.728;2022-12-22T14:38:51;11.73;;;4.80;;
19084;SDS011;9675;51.538;6.728;2022-12-22T14:41:21;8.93;;;4.60;;
19084;SDS011;9675;51.538;6.728;2022-12-22T14:44:16;9.20;;;4.17;;
19084;SDS011;9675;51.538;6.728;2022-12-22T14:46:47;9.87;;;4.23;;
19084;SDS011;9675;51.538;6.728;2022-12-22T14:49:44;7.23;;;3.67;;
19084;SDS011;9675;51.538;6.728;2022-12-22T14:52:16;5.70;;;3.33;;
19084;SDS011;9675;51.538;6.728;2022-12-22T14:54:49;6.33;;;3.10;;
19084;SDS011;9675;51.538;6.728;2022-12-22T14:57:20;8.27;;;2.93;;
19084;SDS011;9675;51.538;6.728;2022-12-22T15:00:01;13.37;;;4.93;;
19084;SDS011;9675;51.538;6.728;2022-12-22T15:02:33;6.63;;;3.10;;
19084;SDS011;9675;51.538;6.728;2022-12-22T15:05:07;7.77;;;3.50;;
19084;SDS011;9675;51.538;6.728;2022-12-22T15:07:52;7.77;;;4.23;;
19084;SDS011;9675;51.538;6.728;2022-12-22T15:10:21;7.20;;;4.00;;
19084;SDS011;9675;51.538;6.728;2022-12-22T15:12:55;8.27;;;3.70;;
19084;SDS011;9675;51.538;6.728;2022-12-22T15:15:29;6.50;;;3.50;;
19084;SDS011;9675;51.538;6.728;2022-12-22T15:17:59;10.33;;;4.87;;
19084;SDS011;9675;51.538;6.728;2022-12-22T15:20:27;12.63;;;4.43;;
19084;SDS011;9675;51.538;6.728;2022-12-22T15:22:56;8.20;;;3.53;;
19084;SDS011;9675;51.538;6.728;2022-12-22T15:25:23;6.33;;;3.40;;
19084;SDS011;9675;51.538;6.728;2022-12-22T15:27:51;10.20;;;3.67;;
19084;SDS011;9675;51.538;6.728;2022-12-22T15:30:19;7.53;;;3.43;;
19084;SDS011;9675;51.538;6.728;2022-12-22T15:32:48;11.50;;;4.68;;
19084;SDS011;9675;51.538;6.728;2022-12-22T15:35:16;10.27;;;4.37;;
19084;SDS011;9675;51.538;6.728;2022-12-22T15:37:48;8.97;;;4.33;;
19084;SDS011;9675;51.538;6.728;2022-12-22T15:40:16;5.47;;;3.50;;
19084;SDS011;9675;51.538;6.728;2022-12-22T15:42:45;9.13;;;3.60;;
19084;SDS011;9675;51.538;6.728;2022-12-22T15:45:13;7.17;;;3.07;;
19084;SDS011;9675;51.538;6.728;2022-12-22T15:47:43;7.00;;;3.33;;
19084;SDS011;9675;51.538;6.728;2022-12-22T15:50:17;4.70;;;2.73;;
19084;SDS011;9675;51.538;6.728;2022-12-22T15:52:49;4.67;;;3.00;;
19084;SDS011;9675;51.538;6.728;2022-12-22T15:55:20;10.73;;;3.00;;
19084;SDS011;9675;51.538;6.728;2022-12-22T15:57:49;4.57;;;2.43;;
19084;SDS011;9675;51.538;6.728;2022-12-22T16:00:21;4.40;;;2.70;;